createdAt,value
2022-09-28T00:00:14.864Z,5.80
2022-09-28T00:03:16.192Z,8.20
2022-09-28T00:06:20.966Z,6.13
2022-09-28T00:09:22.352Z,6.03
2022-09-28T00:12:23.684Z,6.97
2022-09-28T00:15:25.242Z,7.38
2022-09-28T00:18:26.646Z,7.00
2022-09-28T00:21:30.488Z,7.72
2022-09-28T00:24:31.870Z,7.97
2022-09-28T00:27:33.259Z,7.68
2022-09-28T00:30:34.649Z,9.05
2022-09-28T00:33:35.964Z,8.60
2022-09-28T00:36:37.369Z,7.60
2022-09-28T00:39:39.538Z,9.30
2022-09-28T00:42:40.917Z,7.60
2022-09-28T00:45:43.451Z,7.82
2022-09-28T00:49:02.838Z,8.82
2022-09-28T00:52:06.583Z,9.35
2022-09-28T00:55:16.972Z,8.95
2022-09-28T00:58:23.834Z,10.82
2022-09-28T01:01:26.884Z,11.07
2022-09-28T01:04:30.857Z,8.68
2022-09-28T01:07:34.344Z,10.43
2022-09-28T01:10:35.993Z,10.05
2022-09-28T01:13:39.809Z,8.13
2022-09-28T01:20:46.718Z,8.95
2022-09-28T01:24:13.922Z,9.13
2022-09-28T01:27:20.922Z,11.20
2022-09-28T01:30:22.966Z,12.60
2022-09-28T01:33:28.835Z,9.07
2022-09-28T01:36:38.540Z,10.00
2022-09-28T01:39:45.423Z,9.85
2022-09-28T01:42:53.311Z,10.05
2022-09-28T01:46:13.177Z,9.10
2022-09-28T01:49:43.863Z,9.93
2022-09-28T01:52:58.307Z,9.98
2022-09-28T01:56:11.704Z,13.18
2022-09-28T01:59:25.984Z,10.85
2022-09-28T02:02:34.188Z,10.32
2022-09-28T02:05:39.209Z,10.10
2022-09-28T02:08:49.180Z,9.82
2022-09-28T02:15:27.172Z,9.65
2022-09-28T02:18:28.874Z,9.13
2022-09-28T02:22:11.741Z,8.85
2022-09-28T02:25:24.401Z,9.70
2022-09-28T02:28:26.326Z,8.70
2022-09-28T02:31:28.188Z,11.00
2022-09-28T02:34:29.658Z,9.25
2022-09-28T02:37:31.109Z,9.52
2022-09-28T02:40:36.301Z,12.43
2022-09-28T02:43:52.706Z,8.70
2022-09-28T02:47:03.778Z,10.32
2022-09-28T02:50:10.498Z,12.30
2022-09-28T02:53:14.802Z,12.45
2022-09-28T02:56:26.835Z,10.00
2022-09-28T02:59:48.826Z,10.43
2022-09-28T03:03:03.999Z,10.45
2022-09-28T03:06:14.855Z,12.88
2022-09-28T03:12:27.287Z,15.65
2022-09-28T03:15:31.013Z,22.35
2022-09-28T03:18:32.372Z,22.13
2022-09-28T03:21:33.720Z,18.95
2022-09-28T03:24:35.095Z,18.55
2022-09-28T03:27:36.958Z,39.67
2022-09-28T03:30:38.387Z,51.55
2022-09-28T03:33:40.123Z,45.90
2022-09-28T03:36:41.539Z,62.33
2022-09-28T03:39:43.323Z,66.50
2022-09-28T03:42:44.685Z,81.88
2022-09-28T03:45:57.014Z,59.05
2022-09-28T03:48:59.014Z,79.00
2022-09-28T03:52:00.892Z,59.58
2022-09-28T03:55:02.380Z,50.40
2022-09-28T03:58:03.747Z,62.63
2022-09-28T04:01:09.257Z,55.55
2022-09-28T04:04:14.121Z,78.15
2022-09-28T04:07:15.588Z,56.92
2022-09-28T04:10:17.681Z,67.25
2022-09-28T04:13:19.089Z,62.53
2022-09-28T04:16:20.935Z,56.53
2022-09-28T04:19:33.376Z,22.25
2022-09-28T04:22:54.986Z,15.32
2022-09-28T04:25:56.499Z,15.90
2022-09-28T04:28:59.145Z,17.67
2022-09-28T04:32:03.156Z,17.23
2022-09-28T04:35:12.029Z,16.80
2022-09-28T04:38:13.378Z,15.30
2022-09-28T04:41:15.703Z,11.13
2022-09-28T04:44:17.220Z,10.13
2022-09-28T04:47:20.426Z,12.45
2022-09-28T04:50:30.518Z,16.05
2022-09-28T04:53:48.183Z,20.23
2022-09-28T05:05:46.974Z,30.98
2022-09-28T05:09:04.051Z,39.13
2022-09-28T05:12:05.456Z,26.20
2022-09-28T05:15:07.085Z,31.77
2022-09-28T05:18:08.834Z,36.95
2022-09-28T05:21:22.486Z,36.10
2022-09-28T05:24:24.220Z,25.55
2022-09-28T05:27:26.803Z,23.10
2022-09-28T05:30:39.341Z,25.08
2022-09-28T05:33:58.536Z,22.75
2022-09-28T05:37:00.489Z,21.80
2022-09-28T05:40:02.491Z,20.48
2022-09-28T05:43:04.061Z,15.98
2022-09-28T05:46:06.834Z,15.30
2022-09-28T05:49:11.091Z,17.80
2022-09-28T05:52:12.436Z,15.02
2022-09-28T05:55:14.154Z,16.23
2022-09-28T05:58:16.907Z,16.38
2022-09-28T06:01:18.394Z,14.90
2022-09-28T06:04:20.518Z,14.85
2022-09-28T06:07:23.000Z,15.83
2022-09-28T06:10:28.480Z,13.55
2022-09-28T06:13:33.873Z,13.93
2022-09-28T06:16:36.636Z,12.35
2022-09-28T06:19:41.014Z,13.55
2022-09-28T06:22:58.415Z,12.60
2022-09-28T06:25:59.830Z,13.68
2022-09-28T06:29:01.279Z,14.27
2022-09-28T06:32:02.721Z,13.00
2022-09-28T06:35:04.418Z,12.00
2022-09-28T06:38:05.931Z,12.90
2022-09-28T06:41:08.839Z,14.90
2022-09-28T06:44:10.231Z,14.00
2022-09-28T06:47:30.043Z,17.38
2022-09-28T06:50:51.329Z,43.22
2022-09-28T06:54:14.502Z,23.23
2022-09-28T06:57:24.799Z,69.45
2022-09-28T07:00:27.832Z,25.40
2022-09-28T07:03:29.870Z,69.70
2022-09-28T07:06:54.162Z,61.75
2022-09-28T07:10:25.936Z,150.63
2022-09-28T07:13:50.905Z,37.45
2022-09-28T07:17:10.985Z,50.25
2022-09-28T07:20:19.060Z,79.60
2022-09-28T07:23:21.729Z,104.47
2022-09-28T07:26:49.031Z,89.88
2022-09-28T07:30:14.809Z,65.60
2022-09-28T07:33:50.054Z,57.63
2022-09-28T07:36:58.862Z,32.00
2022-09-28T07:40:00.674Z,31.65
2022-09-28T07:43:05.978Z,28.55
2022-09-28T07:46:09.024Z,49.50
2022-09-28T07:49:12.368Z,24.30
2022-09-28T07:52:32.441Z,22.90
2022-09-28T07:55:41.190Z,15.93
2022-09-28T07:59:00.925Z,18.02
2022-09-28T08:02:31.320Z,17.05
2022-09-28T08:05:32.727Z,19.35
2022-09-28T08:08:34.774Z,17.15
2022-09-28T08:11:36.398Z,17.88
2022-09-28T08:14:57.763Z,17.88
2022-09-28T08:18:17.891Z,19.10
2022-09-28T08:21:22.113Z,17.55
2022-09-28T08:24:23.512Z,17.80
2022-09-28T08:27:25.155Z,16.33
2022-09-28T08:30:26.690Z,15.23
2022-09-28T08:33:40.192Z,14.60
2022-09-28T08:36:59.916Z,15.77
2022-09-28T08:40:25.340Z,15.70
2022-09-28T08:44:00.216Z,14.25
2022-09-28T08:47:24.584Z,13.65
2022-09-28T08:50:51.380Z,12.85
2022-09-28T08:54:08.110Z,12.77
2022-09-28T08:57:33.212Z,12.40
2022-09-28T09:00:52.133Z,13.70
2022-09-28T09:03:54.765Z,15.43
2022-09-28T09:07:36.117Z,13.10
2022-09-28T09:10:51.996Z,13.95
2022-09-28T09:14:28.249Z,14.18
2022-09-28T09:17:40.465Z,12.10
2022-09-28T09:20:57.996Z,10.95
2022-09-28T09:24:26.985Z,11.27
2022-09-28T09:27:40.683Z,10.75
2022-09-28T09:31:04.222Z,10.18
2022-09-28T09:34:27.155Z,11.20
2022-09-28T09:38:25.257Z,11.05
2022-09-28T09:42:18.494Z,9.98
2022-09-28T09:46:16.912Z,10.45
2022-09-28T09:49:59.034Z,10.75
2022-09-28T09:53:06.946Z,10.90
2022-09-28T09:56:16.699Z,12.25
2022-09-28T09:59:37.680Z,10.77
2022-09-28T10:02:48.408Z,11.40
2022-09-28T10:06:09.171Z,10.85
2022-09-28T10:09:20.403Z,12.10
2022-09-28T10:12:23.437Z,10.05
2022-09-28T10:15:31.046Z,9.38
2022-09-28T10:18:47.683Z,9.02
2022-09-28T10:22:14.624Z,9.18
2022-09-28T10:25:17.311Z,7.68
2022-09-28T10:28:29.500Z,7.10
2022-09-28T10:31:38.473Z,9.90
2022-09-28T10:34:48.835Z,8.75
2022-09-28T10:37:59.321Z,6.70
2022-09-28T10:41:23.680Z,7.53
2022-09-28T10:44:34.232Z,7.45
2022-09-28T10:47:44.687Z,7.05
2022-09-28T10:50:59.781Z,8.30
2022-09-28T10:54:02.609Z,8.48
2022-09-28T10:57:28.124Z,6.90
2022-09-28T11:00:42.907Z,7.32
2022-09-28T11:03:56.372Z,6.65
2022-09-28T11:06:57.857Z,6.28
2022-09-28T11:10:01.738Z,7.55
2022-09-28T11:13:09.062Z,12.77
2022-09-28T11:16:21.117Z,6.22
2022-09-28T11:19:22.622Z,10.32
2022-09-28T11:22:38.519Z,9.27
2022-09-28T11:25:42.211Z,3.88
2022-09-28T11:28:51.386Z,6.05
2022-09-28T11:32:04.775Z,4.32
2022-09-28T11:35:56.138Z,4.60
2022-09-28T11:42:52.987Z,4.95
2022-09-28T11:46:08.310Z,3.92
2022-09-28T11:49:27.198Z,3.95
2022-09-28T11:52:32.267Z,4.80
2022-09-28T11:55:40.964Z,6.22
2022-09-28T11:58:57.300Z,3.45
2022-09-28T12:02:22.194Z,5.32
2022-09-28T12:05:34.800Z,7.88
2022-09-28T12:08:51.349Z,5.38
2022-09-28T12:12:22.578Z,6.50
2022-09-28T12:15:38.183Z,7.13
2022-09-28T12:19:02.151Z,4.85
2022-09-28T12:22:13.555Z,4.65
2022-09-28T12:25:20.904Z,5.60
2022-09-28T12:28:38.211Z,6.10
2022-09-28T12:31:56.564Z,5.20
2022-09-28T12:34:58.196Z,7.95
2022-09-28T12:38:29.709Z,4.07
2022-09-28T12:41:59.578Z,5.22
2022-09-28T12:45:23.442Z,5.15
2022-09-28T12:48:42.797Z,5.07
2022-09-28T12:51:50.209Z,4.60
2022-09-28T12:55:19.371Z,3.92
2022-09-28T12:58:45.574Z,3.45
2022-09-28T13:02:05.445Z,4.75
2022-09-28T13:05:41.030Z,6.25
2022-09-28T13:08:45.126Z,4.72
2022-09-28T13:11:49.341Z,4.57
2022-09-28T13:15:02.263Z,3.90
2022-09-28T13:18:26.237Z,7.50
2022-09-28T13:21:37.558Z,5.13
2022-09-28T13:24:41.080Z,5.82
2022-09-28T13:27:47.978Z,4.18
2022-09-28T13:30:51.188Z,3.58
2022-09-28T13:33:53.479Z,4.30
2022-09-28T13:37:16.603Z,3.67
2022-09-28T13:40:18.047Z,6.95
2022-09-28T13:43:31.503Z,3.53
2022-09-28T13:49:55.939Z,3.10
2022-09-28T13:53:09.435Z,4.30
2022-09-28T13:59:29.939Z,6.93
2022-09-28T14:02:52.835Z,7.53
2022-09-28T14:06:00.019Z,6.63
2022-09-28T14:09:13.610Z,5.00
2022-09-28T14:12:53.920Z,4.53
2022-09-28T14:16:18.284Z,4.72
2022-09-28T14:19:31.455Z,6.53
2022-09-28T14:22:37.470Z,6.03
2022-09-28T14:25:45.073Z,3.17
2022-09-28T14:28:52.389Z,2.85
2022-09-28T14:31:55.757Z,5.25
2022-09-28T14:35:00.937Z,16.27
2022-09-28T14:38:14.850Z,11.00
2022-09-28T14:41:16.127Z,7.75
2022-09-28T14:44:17.481Z,2.95
2022-09-28T14:47:33.932Z,2.90
2022-09-28T14:50:35.309Z,3.72
2022-09-28T14:53:38.646Z,1.50
2022-09-28T14:56:44.706Z,6.10
2022-09-28T14:59:46.651Z,2.90
2022-09-28T15:02:51.186Z,3.72
2022-09-28T15:05:52.723Z,3.42
2022-09-28T15:08:54.227Z,3.45
2022-09-28T15:12:02.770Z,1.70
2022-09-28T15:15:07.649Z,4.00
2022-09-28T15:18:48.123Z,2.72
2022-09-28T15:21:50.370Z,2.50
2022-09-28T15:25:01.393Z,3.03
2022-09-28T15:28:18.023Z,3.03
2022-09-28T15:31:22.277Z,3.38
2022-09-28T15:34:26.762Z,3.78
2022-09-28T15:37:33.155Z,4.65
2022-09-28T15:40:38.562Z,5.35
2022-09-28T15:43:40.063Z,11.63
2022-09-28T15:46:48.033Z,13.30
2022-09-28T15:49:59.335Z,8.93
2022-09-28T15:53:04.382Z,6.38
2022-09-28T15:56:06.456Z,5.88
2022-09-28T15:59:07.751Z,6.50
2022-09-28T16:02:12.447Z,4.78
2022-09-28T16:05:31.531Z,3.40
2022-09-28T16:08:35.972Z,4.45
2022-09-28T16:11:39.348Z,5.22
2022-09-28T16:17:42.084Z,4.30
2022-09-28T16:20:46.100Z,3.60
2022-09-28T16:23:52.938Z,5.38
2022-09-28T16:27:03.132Z,7.32
2022-09-28T16:30:16.937Z,6.63
2022-09-28T16:33:30.345Z,5.20
2022-09-28T16:36:43.487Z,4.90
2022-09-28T16:39:44.821Z,4.88
2022-09-28T16:42:49.045Z,5.03
2022-09-28T16:45:50.777Z,5.45
2022-09-28T16:48:52.145Z,8.25
2022-09-28T16:51:54.063Z,4.38
2022-09-28T16:54:55.401Z,6.70
2022-09-28T16:57:56.886Z,8.63
2022-09-28T17:00:59.201Z,6.70
2022-09-28T17:04:00.697Z,7.05
2022-09-28T17:07:02.068Z,11.40
2022-09-28T17:10:14.780Z,15.23
2022-09-28T17:13:16.122Z,12.17
2022-09-28T17:16:42.653Z,8.80
2022-09-28T17:19:43.815Z,10.45
2022-09-28T17:22:45.176Z,9.30
2022-09-28T17:25:47.574Z,9.43
2022-09-28T17:28:48.929Z,6.60
2022-09-28T17:31:50.259Z,8.15
2022-09-28T17:35:00.900Z,8.98
2022-09-28T17:38:02.555Z,11.65
2022-09-28T17:41:04.055Z,8.10
2022-09-28T17:44:05.433Z,7.10
2022-09-28T17:47:06.788Z,7.13
2022-09-28T17:50:20.183Z,7.32
2022-09-28T17:53:21.528Z,8.50
2022-09-28T17:56:29.712Z,19.48
2022-09-28T17:59:33.188Z,21.33
2022-09-28T18:02:34.591Z,21.67
2022-09-28T18:05:37.250Z,15.63
2022-09-28T18:08:38.758Z,19.77
2022-09-28T18:11:43.166Z,17.08
2022-09-28T18:14:44.489Z,18.65
2022-09-28T18:17:45.855Z,16.83
2022-09-28T18:20:47.243Z,17.42
2022-09-28T18:23:48.578Z,15.23
2022-09-28T18:26:49.893Z,14.48
2022-09-28T18:29:51.221Z,15.55
2022-09-28T18:32:52.670Z,16.67
2022-09-28T18:35:55.395Z,14.10
2022-09-28T18:38:56.714Z,15.85
2022-09-28T18:41:58.074Z,16.02
2022-09-28T18:44:59.393Z,16.70
2022-09-28T18:48:00.821Z,21.58
2022-09-28T18:51:03.151Z,26.38
2022-09-28T18:54:04.519Z,29.15
2022-09-28T18:57:05.850Z,20.67
2022-09-28T19:00:11.364Z,25.48
2022-09-28T19:03:12.829Z,25.95
2022-09-28T19:06:15.794Z,20.70
2022-09-28T19:09:19.787Z,19.58
2022-09-28T19:12:21.240Z,23.83
2022-09-28T19:15:22.920Z,21.80
2022-09-28T19:18:24.243Z,21.90
2022-09-28T19:21:25.763Z,20.27
2022-09-28T19:24:27.452Z,19.02
2022-09-28T19:27:28.779Z,20.27
2022-09-28T19:30:30.100Z,19.13
2022-09-28T19:33:32.134Z,20.08
2022-09-28T19:36:33.463Z,20.83
2022-09-28T19:39:34.799Z,21.50
2022-09-28T19:42:36.177Z,22.88
2022-09-28T19:45:37.508Z,18.58
2022-09-28T19:48:38.865Z,18.35
2022-09-28T19:52:01.665Z,19.83
2022-09-28T19:55:03.227Z,19.57
2022-09-28T19:58:04.544Z,19.95
2022-09-28T20:01:06.813Z,17.55
2022-09-28T20:04:08.493Z,19.10
2022-09-28T20:07:09.833Z,22.17
2022-09-28T20:10:11.275Z,26.90
2022-09-28T20:13:13.733Z,24.87
2022-09-28T20:16:17.629Z,23.13
2022-09-28T20:19:19.103Z,27.17
2022-09-28T20:22:20.468Z,26.92
2022-09-28T20:25:21.808Z,29.67
2022-09-28T20:28:23.194Z,25.05
2022-09-28T20:31:25.139Z,24.58
2022-09-28T20:34:26.687Z,22.58
2022-09-28T20:37:28.010Z,22.10
2022-09-28T20:40:29.388Z,22.40
2022-09-28T20:43:30.839Z,22.75
2022-09-28T20:46:32.371Z,23.83
2022-09-28T20:49:33.815Z,24.75
2022-09-28T20:52:35.273Z,20.48
2022-09-28T20:55:36.606Z,23.00
2022-09-28T20:58:39.310Z,22.77
2022-09-28T21:01:40.853Z,22.95
2022-09-28T21:04:42.210Z,24.08
2022-09-28T21:07:43.535Z,21.88
2022-09-28T21:10:44.855Z,23.27
2022-09-28T21:13:47.329Z,27.58
2022-09-28T21:16:48.668Z,21.53
2022-09-28T21:19:50.013Z,20.70
2022-09-28T21:22:51.339Z,17.75
2022-09-28T21:26:10.332Z,20.15
2022-09-28T21:29:14.215Z,20.92
2022-09-28T21:32:15.528Z,22.75
2022-09-28T21:35:16.865Z,20.48
2022-09-28T21:38:18.190Z,19.15
2022-09-28T21:41:19.516Z,17.98
2022-09-28T21:44:21.016Z,19.92
2022-09-28T21:47:22.507Z,19.83
2022-09-28T21:50:25.873Z,19.55
2022-09-28T21:56:29.721Z,21.05
2022-09-28T21:59:31.041Z,21.92
2022-09-28T22:02:32.424Z,20.50
2022-09-28T22:05:33.747Z,20.08
2022-09-28T22:08:36.385Z,18.20
2022-09-28T22:11:37.739Z,20.47
2022-09-28T22:14:39.071Z,18.63
2022-09-28T22:17:40.462Z,20.38
2022-09-28T22:20:41.808Z,20.92
2022-09-28T22:23:43.222Z,19.30
2022-09-28T22:26:44.558Z,18.60
2022-09-28T22:29:45.897Z,20.73
2022-09-28T22:32:47.222Z,21.08
2022-09-28T22:35:48.694Z,20.02
2022-09-28T22:38:50.204Z,19.63
2022-09-28T22:41:51.915Z,19.67
2022-09-28T22:44:53.238Z,16.55
2022-09-28T22:47:54.569Z,18.58
2022-09-28T22:50:55.980Z,17.83
2022-09-28T22:53:57.946Z,18.55
2022-09-28T22:56:59.295Z,21.13
2022-09-28T23:00:00.843Z,22.52
2022-09-28T23:03:02.238Z,20.88
2022-09-28T23:06:03.775Z,19.45
2022-09-28T23:09:05.199Z,16.92
2022-09-28T23:12:06.552Z,19.17
2022-09-28T23:15:08.670Z,18.75
2022-09-28T23:18:10.234Z,20.30
2022-09-28T23:21:14.307Z,18.15
2022-09-28T23:24:15.687Z,17.42
2022-09-28T23:27:17.040Z,18.17
2022-09-28T23:30:19.580Z,18.85
2022-09-28T23:33:21.332Z,17.00
2022-09-28T23:36:22.660Z,19.38
2022-09-28T23:39:24.037Z,17.17
2022-09-28T23:42:25.393Z,15.25
2022-09-28T23:45:26.757Z,20.08
2022-09-28T23:48:28.118Z,18.60
2022-09-28T23:51:29.458Z,15.68
2022-09-28T23:54:30.829Z,15.60
2022-09-28T23:57:32.185Z,15.80
